sensor_id;sensor_type;location;lat;lon;timestamp;pressure;altitude;pressure_sealevel;temperature;humidity
74103;BME280;62853;46.166;3.640;2022-12-13T00:01:46;101094.94;;;-7.84;100.00
74103;BME280;62853;46.166;3.640;2022-12-13T00:04:12;101116.41;;;-7.77;100.00
74103;BME280;62853;46.166;3.640;2022-12-13T00:06:38;101115.53;;;-7.78;100.00
74103;BME280;62853;46.166;3.640;2022-12-13T00:09:04;101110.41;;;-7.78;100.00
74103;BME280;62853;46.166;3.640;2022-12-13T00:11:30;101100.06;;;-7.82;100.00
74103;BME280;62853;46.166;3.640;2022-12-13T00:13:56;101113.81;;;-7.79;100.00
74103;BME280;62853;46.166;3.640;2022-12-13T00:16:23;101106.94;;;-7.80;100.00
74103;BME280;62853;46.166;3.640;2022-12-13T00:18:51;101098.31;;;-7.85;100.00
74103;BME280;62853;46.166;3.640;2022-12-13T00:21:19;101106.03;;;-7.83;100.00
74103;BME280;62853;46.166;3.640;2022-12-13T00:23:45;101104.28;;;-7.85;100.00
74103;BME280;62853;46.166;3.640;2022-12-13T00:26:13;101095.75;;;-7.85;100.00
74103;BME280;62853;46.166;3.640;2022-12-13T00:28:39;101097.50;;;-7.84;100.00
74103;BME280;62853;46.166;3.640;2022-12-13T00:31:05;101094.94;;;-7.82;100.00
74103;BME280;62853;46.166;3.640;2022-12-13T00:33:31;101095.78;;;-7.83;100.00
74103;BME280;62853;46.166;3.640;2022-12-13T00:35:57;101100.06;;;-7.84;100.00
74103;BME280;62853;46.166;3.640;2022-12-13T00:38:22;101092.31;;;-7.87;100.00
74103;BME280;62853;46.166;3.640;2022-12-13T00:40:48;101101.59;;;-7.91;100.00
74103;BME280;62853;46.166;3.640;2022-12-13T00:43:13;101088.72;;;-7.94;100.00
74103;BME280;62853;46.166;3.640;2022-12-13T00:45:39;101090.47;;;-7.91;100.00
74103;BME280;62853;46.166;3.640;2022-12-13T00:48:05;101078.38;;;-7.98;100.00
74103;BME280;62853;46.166;3.640;2022-12-13T00:50:31;101087.06;;;-7.92;100.00
74103;BME280;62853;46.166;3.640;2022-12-13T00:52:58;101089.63;;;-7.92;100.00
74103;BME280;62853;46.166;3.640;2022-12-13T00:55:24;101086.16;;;-7.94;100.00
74103;BME280;62853;46.166;3.640;2022-12-13T00:57:50;101086.94;;;-7.96;100.00
74103;BME280;62853;46.166;3.640;2022-12-13T01:00:16;101086.94;;;-7.96;100.00
74103;BME280;62853;46.166;3.640;2022-12-13T01:02:41;101082.69;;;-7.97;100.00
74103;BME280;62853;46.166;3.640;2022-12-13T01:05:08;101084.31;;;-7.99;100.00
74103;BME280;62853;46.166;3.640;2022-12-13T01:07:35;101084.28;;;-8.01;100.00
74103;BME280;62853;46.166;3.640;2022-12-13T01:10:00;101082.44;;;-8.07;100.00
74103;BME280;62853;46.166;3.640;2022-12-13T01:12:25;101081.63;;;-8.06;100.00
74103;BME280;62853;46.166;3.640;2022-12-13T01:14:51;101074.66;;;-8.11;100.00
74103;BME280;62853;46.166;3.640;2022-12-13T01:17:16;101077.25;;;-8.10;100.00
74103;BME280;62853;46.166;3.640;2022-12-13T01:19:41;101068.69;;;-8.12;100.00
74103;BME280;62853;46.166;3.640;2022-12-13T01:22:07;101068.72;;;-8.10;100.00
74103;BME280;62853;46.166;3.640;2022-12-13T01:24:33;101074.69;;;-8.10;100.00
74103;BME280;62853;46.166;3.640;2022-12-13T01:26:58;101078.94;;;-8.10;100.00
74103;BME280;62853;46.166;3.640;2022-12-13T01:29:25;101066.00;;;-8.16;100.00
74103;BME280;62853;46.166;3.640;2022-12-13T01:31:51;101072.03;;;-8.14;100.00
74103;BME280;62853;46.166;3.640;2022-12-13T01:34:18;101084.81;;;-8.14;100.00
74103;BME280;62853;46.166;3.640;2022-12-13T01:36:46;101084.78;;;-8.16;100.00
74103;BME280;62853;46.166;3.640;2022-12-13T01:39:13;101079.72;;;-8.14;100.00
74103;BME280;62853;46.166;3.640;2022-12-13T01:41:39;101081.38;;;-8.15;100.00
74103;BME280;62853;46.166;3.640;2022-12-13T01:46:51;101086.41;;;-8.18;100.00
74103;BME280;62853;46.166;3.640;2022-12-13T01:49:17;101089.81;;;-8.19;100.00
74103;BME280;62853;46.166;3.640;2022-12-13T01:51:50;101086.34;;;-8.21;100.00
74103;BME280;62853;46.166;3.640;2022-12-13T01:54:22;101086.34;;;-8.21;100.00
74103;BME280;62853;46.166;3.640;2022-12-13T01:56:52;101091.41;;;-8.23;100.00
74103;BME280;62853;46.166;3.640;2022-12-13T01:59:18;101088.81;;;-8.24;100.00
74103;BME280;62853;46.166;3.640;2022-12-13T02:01:48;101085.38;;;-8.26;100.00
74103;BME280;62853;46.166;3.640;2022-12-13T02:04:20;101083.63;;;-8.27;100.00
74103;BME280;62853;46.166;3.640;2022-12-13T02:06:48;101078.44;;;-8.30;100.00
74103;BME280;62853;46.166;3.640;2022-12-13T02:09:14;101082.63;;;-8.32;100.00
74103;BME280;62853;46.166;3.640;2022-12-13T02:11:41;101069.78;;;-8.35;100.00
74103;BME280;62853;46.166;3.640;2022-12-13T02:14:08;101075.78;;;-8.33;100.00
74103;BME280;62853;46.166;3.640;2022-12-13T02:16:58;101078.34;;;-8.33;100.00
74103;BME280;62853;46.166;3.640;2022-12-13T02:19:35;101081.84;;;-8.30;100.00
74103;BME280;62853;46.166;3.640;2022-12-13T02:25:02;101070.69;;;-8.33;100.00
74103;BME280;62853;46.166;3.640;2022-12-13T02:30:25;101074.81;;;-8.38;100.00
74103;BME280;62853;46.166;3.640;2022-12-13T02:33:15;101070.44;;;-8.44;100.00
74103;BME280;62853;46.166;3.640;2022-12-13T02:36:16;101085.16;;;-8.34;100.00
74103;BME280;62853;46.166;3.640;2022-12-13T02:38:48;101080.84;;;-8.35;100.00
74103;BME280;62853;46.166;3.640;2022-12-13T02:44:34;101071.47;;;-8.36;100.00
74103;BME280;62853;46.166;3.640;2022-12-13T02:47:08;101062.00;;;-8.40;100.00
74103;BME280;62853;46.166;3.640;2022-12-13T02:49:38;101057.72;;;-8.41;100.00
74103;BME280;62853;46.166;3.640;2022-12-13T02:52:07;101058.53;;;-8.44;100.00
74103;BME280;62853;46.166;3.640;2022-12-13T02:54:33;101059.41;;;-8.42;100.00
74103;BME280;62853;46.166;3.640;2022-12-13T02:56:59;101060.28;;;-8.43;100.00
74103;BME280;62853;46.166;3.640;2022-12-13T02:59:35;101044.91;;;-8.44;100.00
74103;BME280;62853;46.166;3.640;2022-12-13T03:08:21;101044.78;;;-8.49;100.00
74103;BME280;62853;46.166;3.640;2022-12-13T03:11:18;101054.28;;;-8.42;100.00
74103;BME280;62853;46.166;3.640;2022-12-13T03:13:49;101054.31;;;-8.43;100.00
74103;BME280;62853;46.166;3.640;2022-12-13T03:16:27;101049.38;;;-8.34;100.00
74103;BME280;62853;46.166;3.640;2022-12-13T03:18:58;101050.31;;;-8.30;100.00
74103;BME280;62853;46.166;3.640;2022-12-13T03:21:24;101054.03;;;-8.19;100.00
74103;BME280;62853;46.166;3.640;2022-12-13T03:23:50;101056.06;;;-8.06;100.00
74103;BME280;62853;46.166;3.640;2022-12-13T03:26:20;101045.91;;;-8.02;100.00
74103;BME280;62853;46.166;3.640;2022-12-13T03:28:46;101046.09;;;-7.95;100.00
74103;BME280;62853;46.166;3.640;2022-12-13T03:31:12;101049.56;;;-7.91;100.00
74103;BME280;62853;46.166;3.640;2022-12-13T03:33:37;101047.06;;;-7.90;100.00
74103;BME280;62853;46.166;3.640;2022-12-13T03:36:03;101042.84;;;-7.89;100.00
74103;BME280;62853;46.166;3.640;2022-12-13T03:38:29;101047.13;;;-7.87;100.00
74103;BME280;62853;46.166;3.640;2022-12-13T03:41:02;101044.59;;;-7.87;100.00
74103;BME280;62853;46.166;3.640;2022-12-13T03:43:30;101047.22;;;-7.83;100.00
74103;BME280;62853;46.166;3.640;2022-12-13T03:45:55;101043.81;;;-7.82;100.00
74103;BME280;62853;46.166;3.640;2022-12-13T03:48:21;101034.41;;;-7.85;100.00
74103;BME280;62853;46.166;3.640;2022-12-13T03:50:47;101048.16;;;-7.80;100.00
74103;BME280;62853;46.166;3.640;2022-12-13T03:53:13;101046.44;;;-7.79;100.00
74103;BME280;62853;46.166;3.640;2022-12-13T03:55:38;101038.75;;;-7.81;100.00
74103;BME280;62853;46.166;3.640;2022-12-13T03:58:03;101040.31;;;-7.86;100.00
74103;BME280;62853;46.166;3.640;2022-12-13T04:00:29;101034.44;;;-7.83;100.00
74103;BME280;62853;46.166;3.640;2022-12-13T04:02:54;101030.25;;;-7.80;100.00
74103;BME280;62853;46.166;3.640;2022-12-13T04:05:20;101031.09;;;-7.79;100.00
74103;BME280;62853;46.166;3.640;2022-12-13T04:07:47;101032.03;;;-7.77;100.00
74103;BME280;62853;46.166;3.640;2022-12-13T04:10:12;101022.47;;;-7.85;100.00
74103;BME280;62853;46.166;3.640;2022-12-13T04:12:38;101035.31;;;-7.81;100.00
74103;BME280;62853;46.166;3.640;2022-12-13T04:15:22;101037.16;;;-7.76;100.00
74103;BME280;62853;46.166;3.640;2022-12-13T04:17:47;101027.81;;;-7.75;100.00
74103;BME280;62853;46.166;3.640;2022-12-13T04:20:13;101015.94;;;-7.72;100.00
74103;BME280;62853;46.166;3.640;2022-12-13T04:22:38;101022.00;;;-7.68;100.00
74103;BME280;62853;46.166;3.640;2022-12-13T04:25:04;101018.53;;;-7.70;100.00
74103;BME280;62853;46.166;3.640;2022-12-13T04:27:29;101019.56;;;-7.63;100.00
74103;BME280;62853;46.166;3.640;2022-12-13T04:29:55;101017.06;;;-7.60;100.00
74103;BME280;62853;46.166;3.640;2022-12-13T04:32:20;101011.03;;;-7.62;100.00
74103;BME280;62853;46.166;3.640;2022-12-13T04:34:46;101029.00;;;-7.59;100.00
74103;BME280;62853;46.166;3.640;2022-12-13T04:37:11;101023.81;;;-7.62;100.00
74103;BME280;62853;46.166;3.640;2022-12-13T04:39:36;101026.41;;;-7.61;100.00
74103;BME280;62853;46.166;3.640;2022-12-13T04:42:02;101015.31;;;-7.61;100.00
74103;BME280;62853;46.166;3.640;2022-12-13T04:44:28;101013.09;;;-7.46;100.00
74103;BME280;62853;46.166;3.640;2022-12-13T04:46:54;101011.34;;;-7.47;100.00
74103;BME280;62853;46.166;3.640;2022-12-13T04:49:19;101009.50;;;-7.54;100.00
74103;BME280;62853;46.166;3.640;2022-12-13T04:51:44;101004.31;;;-7.57;100.00
74103;BME280;62853;46.166;3.640;2022-12-13T04:54:10;101000.84;;;-7.61;100.00
74103;BME280;62853;46.166;3.640;2022-12-13T04:56:36;101003.47;;;-7.58;100.00
74103;BME280;62853;46.166;3.640;2022-12-13T04:59:02;100988.13;;;-7.58;100.00
74103;BME280;62853;46.166;3.640;2022-12-13T05:01:27;100988.94;;;-7.59;100.00
74103;BME280;62853;46.166;3.640;2022-12-13T05:03:53;100995.78;;;-7.58;100.00
74103;BME280;62853;46.166;3.640;2022-12-13T05:06:18;101001.69;;;-7.62;100.00
74103;BME280;62853;46.166;3.640;2022-12-13T05:08:43;101004.19;;;-7.63;100.00
74103;BME280;62853;46.166;3.640;2022-12-13T05:11:10;100992.94;;;-7.72;100.00
74103;BME280;62853;46.166;3.640;2022-12-13T05:13:36;100991.13;;;-7.77;100.00
74103;BME280;62853;46.166;3.640;2022-12-13T05:16:04;101004.72;;;-7.78;100.00
74103;BME280;62853;46.166;3.640;2022-12-13T05:18:31;100996.16;;;-7.80;100.00
74103;BME280;62853;46.166;3.640;2022-12-13T05:21:01;101000.34;;;-7.82;100.00
74103;BME280;62853;46.166;3.640;2022-12-13T05:23:26;100994.34;;;-7.85;100.00
74103;BME280;62853;46.166;3.640;2022-12-13T05:25:51;100996.91;;;-7.85;100.00
74103;BME280;62853;46.166;3.640;2022-12-13T05:28:17;100996.81;;;-7.88;100.00
74103;BME280;62853;46.166;3.640;2022-12-13T05:30:42;100995.94;;;-7.90;100.00
74103;BME280;62853;46.166;3.640;2022-12-13T05:33:09;101000.16;;;-7.92;100.00
74103;BME280;62853;46.166;3.640;2022-12-13T05:35:35;100993.34;;;-7.91;100.00
74103;BME280;62853;46.166;3.640;2022-12-13T05:38:01;101001.13;;;-7.87;100.00
74103;BME280;62853;46.166;3.640;2022-12-13T05:40:29;100995.97;;;-7.88;100.00
74103;BME280;62853;46.166;3.640;2022-12-13T05:42:55;100996.94;;;-7.83;100.00
74103;BME280;62853;46.166;3.640;2022-12-13T05:45:21;100990.22;;;-7.78;100.00
74103;BME280;62853;46.166;3.640;2022-12-13T05:47:46;100985.94;;;-7.80;100.00
74103;BME280;62853;46.166;3.640;2022-12-13T05:50:13;100990.09;;;-7.86;100.00
74103;BME280;62853;46.166;3.640;2022-12-13T05:52:39;100995.94;;;-7.90;100.00
74103;BME280;62853;46.166;3.640;2022-12-13T05:55:04;100991.47;;;-7.98;100.00
74103;BME280;62853;46.166;3.640;2022-12-13T05:57:30;100989.69;;;-8.02;100.00
74103;BME280;62853;46.166;3.640;2022-12-13T05:59:56;100986.06;;;-8.12;100.00
74103;BME280;62853;46.166;3.640;2022-12-13T06:02:22;100991.91;;;-8.16;100.00
74103;BME280;62853;46.166;3.640;2022-12-13T06:04:47;100989.19;;;-8.24;100.00
74103;BME280;62853;46.166;3.640;2022-12-13T06:07:13;100992.53;;;-8.25;100.00
74103;BME280;62853;46.166;3.640;2022-12-13T06:09:38;100998.47;;;-8.28;100.00
74103;BME280;62853;46.166;3.640;2022-12-13T06:12:04;101008.69;;;-8.28;100.00
74103;BME280;62853;46.166;3.640;2022-12-13T06:14:29;101007.78;;;-8.28;100.00
74103;BME280;62853;46.166;3.640;2022-12-13T06:16:55;100999.09;;;-8.35;100.00
74103;BME280;62853;46.166;3.640;2022-12-13T06:19:21;101005.19;;;-8.30;100.00
74103;BME280;62853;46.166;3.640;2022-12-13T06:21:48;100999.28;;;-8.29;100.00
74103;BME280;62853;46.166;3.640;2022-12-13T06:24:15;100990.75;;;-8.29;100.00
74103;BME280;62853;46.166;3.640;2022-12-13T06:26:40;100996.84;;;-8.24;100.00
74103;BME280;62853;46.166;3.640;2022-12-13T06:29:06;100989.22;;;-8.23;100.00
74103;BME280;62853;46.166;3.640;2022-12-13T06:31:31;100980.81;;;-8.17;100.00
74103;BME280;62853;46.166;3.640;2022-12-13T06:34:00;100988.50;;;-8.17;100.00
74103;BME280;62853;46.166;3.640;2022-12-13T06:36:26;100996.19;;;-8.15;100.00
74103;BME280;62853;46.166;3.640;2022-12-13T06:38:51;100997.19;;;-8.09;100.00
74103;BME280;62853;46.166;3.640;2022-12-13T06:41:17;100985.34;;;-8.05;100.00
74103;BME280;62853;46.166;3.640;2022-12-13T06:43:44;100993.84;;;-8.06;100.00
74103;BME280;62853;46.166;3.640;2022-12-13T06:46:10;100986.13;;;-8.09;100.00
74103;BME280;62853;46.166;3.640;2022-12-13T06:48:35;101007.59;;;-8.02;100.00
74103;BME280;62853;46.166;3.640;2022-12-13T06:51:03;100991.47;;;-7.98;100.00
74103;BME280;62853;46.166;3.640;2022-12-13T06:53:29;101000.94;;;-7.96;100.00
74103;BME280;62853;46.166;3.640;2022-12-13T06:55:56;100988.25;;;-7.90;100.00
74103;BME280;62853;46.166;3.640;2022-12-13T06:58:22;100976.34;;;-7.91;100.00
74103;BME280;62853;46.166;3.640;2022-12-13T07:00:47;100984.03;;;-7.88;100.00
74103;BME280;62853;46.166;3.640;2022-12-13T07:03:13;100990.81;;;-7.90;100.00
74103;BME280;62853;46.166;3.640;2022-12-13T07:05:39;100995.19;;;-7.86;100.00
74103;BME280;62853;46.166;3.640;2022-12-13T07:08:05;100991.28;;;-7.70;100.00
74103;BME280;62853;46.166;3.640;2022-12-13T07:10:31;100990.56;;;-7.62;100.00
74103;BME280;62853;46.166;3.640;2022-12-13T07:12:56;100986.34;;;-7.62;100.00
74103;BME280;62853;46.166;3.640;2022-12-13T07:15:22;100983.22;;;-7.47;100.00
74103;BME280;62853;46.166;3.640;2022-12-13T07:17:48;100976.50;;;-7.43;100.00
74103;BME280;62853;46.166;3.640;2022-12-13T07:20:15;100970.47;;;-7.45;100.00
74103;BME280;62853;46.166;3.640;2022-12-13T07:22:41;100972.25;;;-7.43;100.00
74103;BME280;62853;46.166;3.640;2022-12-13T07:25:07;100959.44;;;-7.43;100.00
74103;BME280;62853;46.166;3.640;2022-12-13T07:27:33;100978.41;;;-7.33;100.00
74103;BME280;62853;46.166;3.640;2022-12-13T07:29:58;100982.63;;;-7.34;100.00
74103;BME280;62853;46.166;3.640;2022-12-13T07:32:24;100984.31;;;-7.36;100.00
74103;BME280;62853;46.166;3.640;2022-12-13T07:34:49;100984.38;;;-7.33;100.00
74103;BME280;62853;46.166;3.640;2022-12-13T07:37:15;100986.94;;;-7.33;100.00
74103;BME280;62853;46.166;3.640;2022-12-13T07:39:40;100985.22;;;-7.32;100.00
74103;BME280;62853;46.166;3.640;2022-12-13T07:42:06;100987.22;;;-7.19;100.00
74103;BME280;62853;46.166;3.640;2022-12-13T07:44:31;100992.53;;;-7.09;100.00
74103;BME280;62853;46.166;3.640;2022-12-13T07:46:56;100990.78;;;-7.11;100.00
74103;BME280;62853;46.166;3.640;2022-12-13T07:49:22;100993.41;;;-7.07;100.00
74103;BME280;62853;46.166;3.640;2022-12-13T07:51:47;101001.22;;;-7.01;100.00
74103;BME280;62853;46.166;3.640;2022-12-13T07:54:13;100992.59;;;-7.05;100.00
74103;BME280;62853;46.166;3.640;2022-12-13T07:56:38;101006.31;;;-7.03;100.00
74103;BME280;62853;46.166;3.640;2022-12-13T07:59:04;100999.53;;;-7.01;100.00
74103;BME280;62853;46.166;3.640;2022-12-13T08:01:32;101007.34;;;-6.93;100.00
74103;BME280;62853;46.166;3.640;2022-12-13T08:03:59;101012.63;;;-6.85;100.00
74103;BME280;62853;46.166;3.640;2022-12-13T08:06:24;101007.00;;;-6.66;100.00
74103;BME280;62853;46.166;3.640;2022-12-13T08:08:54;100987.44;;;-6.62;100.00
74103;BME280;62853;46.166;3.640;2022-12-13T08:11:20;100999.53;;;-6.53;100.00
74103;BME280;62853;46.166;3.640;2022-12-13T08:13:45;101004.81;;;-6.46;100.00
74103;BME280;62853;46.166;3.640;2022-12-13T08:16:11;100988.59;;;-6.45;100.00
74103;BME280;62853;46.166;3.640;2022-12-13T08:18:39;100994.78;;;-6.32;100.00
74103;BME280;62853;46.166;3.640;2022-12-13T08:21:06;101006.84;;;-6.26;100.00
74103;BME280;62853;46.166;3.640;2022-12-13T08:23:33;101010.31;;;-6.23;100.00
74103;BME280;62853;46.166;3.640;2022-12-13T08:25:59;101007.88;;;-6.15;100.00
74103;BME280;62853;46.166;3.640;2022-12-13T08:28:26;101015.56;;;-6.15;100.00
74103;BME280;62853;46.166;3.640;2022-12-13T08:30:52;101021.75;;;-6.02;100.00
74103;BME280;62853;46.166;3.640;2022-12-13T08:33:18;101017.66;;;-5.88;100.00
74103;BME280;62853;46.166;3.640;2022-12-13T08:35:45;101004.03;;;-5.84;100.00
74103;BME280;62853;46.166;3.640;2022-12-13T08:38:11;101017.84;;;-5.75;100.00
74103;BME280;62853;46.166;3.640;2022-12-13T08:40:36;101026.47;;;-5.70;100.00
74103;BME280;62853;46.166;3.640;2022-12-13T08:43:02;101018.00;;;-5.66;100.00
74103;BME280;62853;46.166;3.640;2022-12-13T08:45:28;101009.50;;;-5.62;100.00
74103;BME280;62853;46.166;3.640;2022-12-13T08:47:59;101018.19;;;-5.52;100.00
74103;BME280;62853;46.166;3.640;2022-12-13T08:50:25;101022.56;;;-5.44;100.00
74103;BME280;62853;46.166;3.640;2022-12-13T08:52:51;101009.84;;;-5.37;100.00
74103;BME280;62853;46.166;3.640;2022-12-13T08:55:17;101014.19;;;-5.30;100.00
74103;BME280;62853;46.166;3.640;2022-12-13T08:57:43;101027.13;;;-5.24;100.00
74103;BME280;62853;46.166;3.640;2022-12-13T09:00:17;101034.03;;;-5.18;100.00
74103;BME280;62853;46.166;3.640;2022-12-13T09:02:44;101035.00;;;-5.10;100.00
74103;BME280;62853;46.166;3.640;2022-12-13T09:05:10;101031.66;;;-5.03;100.00
74103;BME280;62853;46.166;3.640;2022-12-13T09:07:37;101024.94;;;-4.93;100.00
74103;BME280;62853;46.166;3.640;2022-12-13T09:10:08;101030.19;;;-4.82;100.00
74103;BME280;62853;46.166;3.640;2022-12-13T09:12:34;101032.75;;;-4.81;100.00
74103;BME280;62853;46.166;3.640;2022-12-13T09:14:59;101025.09;;;-4.78;100.00
74103;BME280;62853;46.166;3.640;2022-12-13T09:17:25;101033.69;;;-4.76;100.00
74103;BME280;62853;46.166;3.640;2022-12-13T09:19:51;101031.91;;;-4.81;100.00
74103;BME280;62853;46.166;3.640;2022-12-13T09:22:16;101037.09;;;-4.77;100.00
74103;BME280;62853;46.166;3.640;2022-12-13T09:24:43;101031.09;;;-4.77;100.00
74103;BME280;62853;46.166;3.640;2022-12-13T09:27:09;101028.59;;;-4.71;100.00
74103;BME280;62853;46.166;3.640;2022-12-13T09:29:35;101032.13;;;-4.61;100.00
74103;BME280;62853;46.166;3.640;2022-12-13T09:32:00;101030.41;;;-4.61;100.00
74103;BME280;62853;46.166;3.640;2022-12-13T09:34:26;101030.38;;;-4.64;100.00
74103;BME280;62853;46.166;3.640;2022-12-13T09:36:51;101037.28;;;-4.61;100.00
74103;BME280;62853;46.166;3.640;2022-12-13T09:39:17;101033.84;;;-4.59;100.00
74103;BME280;62853;46.166;3.640;2022-12-13T09:41:47;101023.59;;;-4.57;100.00
74103;BME280;62853;46.166;3.640;2022-12-13T09:44:22;101022.84;;;-4.49;100.00
74103;BME280;62853;46.166;3.640;2022-12-13T09:46:51;101021.19;;;-4.39;100.00
74103;BME280;62853;46.166;3.640;2022-12-13T09:49:26;101035.06;;;-4.24;100.00
74103;BME280;62853;46.166;3.640;2022-12-13T09:51:54;101035.13;;;-4.15;100.00
74103;BME280;62853;46.166;3.640;2022-12-13T09:54:22;101021.44;;;-4.14;100.00
74103;BME280;62853;46.166;3.640;2022-12-13T09:56:48;101015.44;;;-4.15;100.00
74103;BME280;62853;46.166;3.640;2022-12-13T09:59:21;101009.44;;;-4.14;100.00
74103;BME280;62853;46.166;3.640;2022-12-13T10:01:50;101015.41;;;-4.18;100.00
74103;BME280;62853;46.166;3.640;2022-12-13T10:04:16;101012.00;;;-4.14;100.00
74103;BME280;62853;46.166;3.640;2022-12-13T10:06:42;101007.75;;;-4.13;100.00
74103;BME280;62853;46.166;3.640;2022-12-13T10:09:11;101013.78;;;-4.08;100.00
74103;BME280;62853;46.166;3.640;2022-12-13T10:11:48;101000.94;;;-4.03;100.00
74103;BME280;62853;46.166;3.640;2022-12-13T10:14:23;101002.72;;;-3.96;100.00
74103;BME280;62853;46.166;3.640;2022-12-13T10:16:54;101010.56;;;-3.79;100.00
74103;BME280;62853;46.166;3.640;2022-12-13T10:19:37;101006.34;;;-3.66;100.00
74103;BME280;62853;46.166;3.640;2022-12-13T10:22:06;101002.09;;;-3.57;100.00
74103;BME280;62853;46.166;3.640;2022-12-13T10:25:08;100996.19;;;-3.40;100.00
74103;BME280;62853;46.166;3.640;2022-12-13T10:27:43;101000.53;;;-3.28;100.00
74103;BME280;62853;46.166;3.640;2022-12-13T10:32:51;100985.97;;;-3.15;100.00
74103;BME280;62853;46.166;3.640;2022-12-13T10:35:36;100986.88;;;-3.07;100.00
74103;BME280;62853;46.166;3.640;2022-12-13T10:38:24;100978.31;;;-2.95;100.00
74103;BME280;62853;46.166;3.640;2022-12-13T10:40:50;100970.59;;;-2.94;100.00
74103;BME280;62853;46.166;3.640;2022-12-13T10:43:21;100973.16;;;-2.95;100.00
74103;BME280;62853;46.166;3.640;2022-12-13T10:48:24;100973.09;;;-3.25;100.00
74103;BME280;62853;46.166;3.640;2022-12-13T10:51:00;100975.63;;;-3.28;100.00
74103;BME280;62853;46.166;3.640;2022-12-13T10:53:29;100967.91;;;-3.31;100.00
74103;BME280;62853;46.166;3.640;2022-12-13T10:55:55;100968.78;;;-3.29;100.00
74103;BME280;62853;46.166;3.640;2022-12-13T10:58:21;100957.63;;;-3.25;100.00
74103;BME280;62853;46.166;3.640;2022-12-13T11:00:46;100950.78;;;-3.16;100.00
74103;BME280;62853;46.166;3.640;2022-12-13T11:03:31;100953.41;;;-3.12;100.00
74103;BME280;62853;46.166;3.640;2022-12-13T11:06:14;100939.66;;;-3.06;100.00
74103;BME280;62853;46.166;3.640;2022-12-13T11:08:42;100943.13;;;-2.92;100.00
74103;BME280;62853;46.166;3.640;2022-12-13T11:11:09;100937.16;;;-2.83;100.00
74103;BME280;62853;46.166;3.640;2022-12-13T11:13:50;100941.44;;;-2.76;100.00
74103;BME280;62853;46.166;3.640;2022-12-13T11:16:20;100945.72;;;-2.75;100.00
74103;BME280;62853;46.166;3.640;2022-12-13T11:18:53;100949.19;;;-2.70;100.00
74103;BME280;62853;46.166;3.640;2022-12-13T11:21:38;100937.16;;;-2.65;100.00
74103;BME280;62853;46.166;3.640;2022-12-13T11:24:05;100932.88;;;-2.63;100.00
74103;BME280;62853;46.166;3.640;2022-12-13T11:26:35;100939.72;;;-2.57;100.00
74103;BME280;62853;46.166;3.640;2022-12-13T11:29:14;100942.34;;;-2.51;100.00
74103;BME280;62853;46.166;3.640;2022-12-13T11:37:13;100922.53;;;-2.64;100.00
74103;BME280;62853;46.166;3.640;2022-12-13T11:39:46;100921.69;;;-2.69;100.00
74103;BME280;62853;46.166;3.640;2022-12-13T11:47:47;100919.06;;;-2.94;100.00
74103;BME280;62853;46.166;3.640;2022-12-13T11:50:17;100907.03;;;-3.00;100.00
74103;BME280;62853;46.166;3.640;2022-12-13T11:52:53;100904.47;;;-3.00;100.00
74103;BME280;62853;46.166;3.640;2022-12-13T11:55:35;100907.91;;;-2.91;100.00
74103;BME280;62853;46.166;3.640;2022-12-13T11:58:06;100906.19;;;-2.89;100.00
74103;BME280;62853;46.166;3.640;2022-12-13T12:00:43;100898.47;;;-2.77;100.00
74103;BME280;62853;46.166;3.640;2022-12-13T12:03:26;100890.75;;;-2.65;100.00
74103;BME280;62853;46.166;3.640;2022-12-13T12:06:17;100877.84;;;-2.52;100.00
74103;BME280;62853;46.166;3.640;2022-12-13T12:08:49;100871.00;;;-2.58;100.00
74103;BME280;62853;46.166;3.640;2022-12-13T12:14:15;100880.41;;;-2.60;100.00
74103;BME280;62853;46.166;3.640;2022-12-13T12:16:52;100879.56;;;-2.59;100.00
74103;BME280;62853;46.166;3.640;2022-12-13T12:19:22;100875.28;;;-2.54;100.00
74103;BME280;62853;46.166;3.640;2022-12-13T12:25:11;100875.25;;;-2.41;100.00
74103;BME280;62853;46.166;3.640;2022-12-13T12:35:58;100874.41;;;-2.34;100.00
74103;BME280;62853;46.166;3.640;2022-12-13T12:44:39;100872.66;;;-2.15;100.00
74103;BME280;62853;46.166;3.640;2022-12-13T12:47:39;100870.06;;;-2.17;100.00
74103;BME280;62853;46.166;3.640;2022-12-13T12:50:17;100873.53;;;-2.26;100.00
74103;BME280;62853;46.166;3.640;2022-12-13T12:52:58;100873.53;;;-2.26;100.00
74103;BME280;62853;46.166;3.640;2022-12-13T12:55:49;100875.25;;;-2.29;100.00
74103;BME280;62853;46.166;3.640;2022-12-13T13:03:26;100864.91;;;-2.12;100.00
74103;BME280;62853;46.166;3.640;2022-12-13T13:06:15;100851.13;;;-2.08;100.00
74103;BME280;62853;46.166;3.640;2022-12-13T13:09:02;100850.28;;;-2.06;100.00
74103;BME280;62853;46.166;3.640;2022-12-13T13:11:33;100852.81;;;-2.02;100.00
74103;BME280;62853;46.166;3.640;2022-12-13T13:14:03;100858.88;;;-1.99;100.00
74103;BME280;62853;46.166;3.640;2022-12-13T13:16:38;100853.69;;;-2.00;100.00
74103;BME280;62853;46.166;3.640;2022-12-13T13:21:49;100856.25;;;-1.94;100.00
74103;BME280;62853;46.166;3.640;2022-12-13T13:26:49;100851.06;;;-1.93;100.00
74103;BME280;62853;46.166;3.640;2022-12-13T13:31:55;100850.22;;;-1.90;100.00
74103;BME280;62853;46.166;3.640;2022-12-13T13:34:31;100849.34;;;-1.91;100.00
74103;BME280;62853;46.166;3.640;2022-12-13T13:36:59;100840.75;;;-1.93;100.00
74103;BME280;62853;46.166;3.640;2022-12-13T13:42:15;100847.66;;;-1.93;100.00
74103;BME280;62853;46.166;3.640;2022-12-13T13:52:34;100817.56;;;-2.00;100.00
74103;BME280;62853;46.166;3.640;2022-12-13T14:17:55;100807.25;;;-2.11;100.00
74103;BME280;62853;46.166;3.640;2022-12-13T14:23:16;100808.16;;;-2.15;100.00
74103;BME280;62853;46.166;3.640;2022-12-13T14:31:03;100790.94;;;-2.21;100.00
74103;BME280;62853;46.166;3.640;2022-12-13T14:33:28;100791.84;;;-2.22;100.00
74103;BME280;62853;46.166;3.640;2022-12-13T14:35:56;100789.25;;;-2.30;100.00
74103;BME280;62853;46.166;3.640;2022-12-13T14:38:25;100791.84;;;-2.31;100.00